sensor_id;sensor_type;location;lat;lon;timestamp;pressure;altitude;pressure_sealevel;temperature
20092;BMP180;10205;49.678;6.560;2023-05-10T00:01:08;99312.00;;;19.70
20092;BMP180;10205;49.678;6.560;2023-05-10T00:03:35;99308.00;;;19.60
20092;BMP180;10205;49.678;6.560;2023-05-10T00:06:07;99294.00;;;19.60
20092;BMP180;10205;49.678;6.560;2023-05-10T00:08:34;99299.00;;;19.60
20092;BMP180;10205;49.678;6.560;2023-05-10T00:11:01;99299.00;;;19.60
20092;BMP180;10205;49.678;6.560;2023-05-10T00:13:29;99313.00;;;19.60
20092;BMP180;10205;49.678;6.560;2023-05-10T00:15:56;99305.00;;;19.60
20092;BMP180;10205;49.678;6.560;2023-05-10T00:18:23;99298.00;;;19.50
20092;BMP180;10205;49.678;6.560;2023-05-10T00:20:50;99298.00;;;19.50
20092;BMP180;10205;49.678;6.560;2023-05-10T00:23:19;99290.00;;;19.50
20092;BMP180;10205;49.678;6.560;2023-05-10T00:25:46;99287.00;;;19.50
20092;BMP180;10205;49.678;6.560;2023-05-10T00:28:13;99284.00;;;19.50
20092;BMP180;10205;49.678;6.560;2023-05-10T00:30:40;99282.00;;;19.50
20092;BMP180;10205;49.678;6.560;2023-05-10T00:33:07;99290.00;;;19.40
20092;BMP180;10205;49.678;6.560;2023-05-10T00:35:34;99293.00;;;19.40
20092;BMP180;10205;49.678;6.560;2023-05-10T00:38:01;99294.00;;;19.40
20092;BMP180;10205;49.678;6.560;2023-05-10T00:40:29;99298.00;;;19.40
20092;BMP180;10205;49.678;6.560;2023-05-10T00:42:57;99304.00;;;19.40
20092;BMP180;10205;49.678;6.560;2023-05-10T00:45:25;99297.00;;;19.30
20092;BMP180;10205;49.678;6.560;2023-05-10T00:47:52;99307.00;;;19.30
20092;BMP180;10205;49.678;6.560;2023-05-10T00:50:22;99295.00;;;19.30
20092;BMP180;10205;49.678;6.560;2023-05-10T00:52:49;99310.00;;;19.30
20092;BMP180;10205;49.678;6.560;2023-05-10T00:55:18;99289.00;;;19.20
20092;BMP180;10205;49.678;6.560;2023-05-10T00:57:51;99298.00;;;19.20
20092;BMP180;10205;49.678;6.560;2023-05-10T01:00:19;99295.00;;;19.20
20092;BMP180;10205;49.678;6.560;2023-05-10T01:02:46;99300.00;;;19.20
20092;BMP180;10205;49.678;6.560;2023-05-10T01:05:15;99294.00;;;19.20
20092;BMP180;10205;49.678;6.560;2023-05-10T01:07:42;99297.00;;;19.10
20092;BMP180;10205;49.678;6.560;2023-05-10T01:10:10;99299.00;;;19.10
20092;BMP180;10205;49.678;6.560;2023-05-10T01:12:40;99307.00;;;19.10
20092;BMP180;10205;49.678;6.560;2023-05-10T01:15:11;99307.00;;;19.10
20092;BMP180;10205;49.678;6.560;2023-05-10T01:17:42;99309.00;;;19.00
20092;BMP180;10205;49.678;6.560;2023-05-10T01:20:12;99310.00;;;19.00
20092;BMP180;10205;49.678;6.560;2023-05-10T01:23:12;99305.00;;;19.00
20092;BMP180;10205;49.678;6.560;2023-05-10T01:26:29;99300.00;;;18.90
20092;BMP180;10205;49.678;6.560;2023-05-10T01:29:39;99307.00;;;18.90
20092;BMP180;10205;49.678;6.560;2023-05-10T01:32:28;99312.00;;;18.80
20092;BMP180;10205;49.678;6.560;2023-05-10T01:35:07;99312.00;;;18.80
20092;BMP180;10205;49.678;6.560;2023-05-10T01:37:42;99310.00;;;18.80
20092;BMP180;10205;49.678;6.560;2023-05-10T01:40:22;99312.00;;;18.80
20092;BMP180;10205;49.678;6.560;2023-05-10T01:42:55;99312.00;;;18.80
20092;BMP180;10205;49.678;6.560;2023-05-10T01:45:31;99312.00;;;18.70
20092;BMP180;10205;49.678;6.560;2023-05-10T01:48:10;99316.00;;;18.70
20092;BMP180;10205;49.678;6.560;2023-05-10T01:50:42;99324.00;;;18.70
20092;BMP180;10205;49.678;6.560;2023-05-10T01:53:12;99322.00;;;18.70
20092;BMP180;10205;49.678;6.560;2023-05-10T01:55:46;99320.00;;;18.70
20092;BMP180;10205;49.678;6.560;2023-05-10T01:58:18;99328.00;;;18.60
20092;BMP180;10205;49.678;6.560;2023-05-10T02:00:49;99321.00;;;18.60
20092;BMP180;10205;49.678;6.560;2023-05-10T02:03:23;99316.00;;;18.60
20092;BMP180;10205;49.678;6.560;2023-05-10T02:05:53;99323.00;;;18.50
20092;BMP180;10205;49.678;6.560;2023-05-10T02:08:22;99324.00;;;18.50
20092;BMP180;10205;49.678;6.560;2023-05-10T02:10:54;99328.00;;;18.50
20092;BMP180;10205;49.678;6.560;2023-05-10T02:13:24;99330.00;;;18.50
20092;BMP180;10205;49.678;6.560;2023-05-10T02:15:54;99336.00;;;18.50
20092;BMP180;10205;49.678;6.560;2023-05-10T02:18:25;99333.00;;;18.50
20092;BMP180;10205;49.678;6.560;2023-05-10T02:20:55;99329.00;;;18.40
20092;BMP180;10205;49.678;6.560;2023-05-10T02:23:24;99334.00;;;18.40
20092;BMP180;10205;49.678;6.560;2023-05-10T02:25:53;99328.00;;;18.40
20092;BMP180;10205;49.678;6.560;2023-05-10T02:28:24;99330.00;;;18.40
20092;BMP180;10205;49.678;6.560;2023-05-10T02:30:53;99330.00;;;18.40
20092;BMP180;10205;49.678;6.560;2023-05-10T02:33:21;99322.00;;;18.30
20092;BMP180;10205;49.678;6.560;2023-05-10T02:35:50;99330.00;;;18.30
20092;BMP180;10205;49.678;6.560;2023-05-10T02:38:20;99323.00;;;18.30
20092;BMP180;10205;49.678;6.560;2023-05-10T02:40:49;99320.00;;;18.30
20092;BMP180;10205;49.678;6.560;2023-05-10T02:43:18;99323.00;;;18.20
20092;BMP180;10205;49.678;6.560;2023-05-10T02:45:47;99327.00;;;18.20
20092;BMP180;10205;49.678;6.560;2023-05-10T02:48:15;99330.00;;;18.20
20092;BMP180;10205;49.678;6.560;2023-05-10T02:50:45;99322.00;;;18.20
20092;BMP180;10205;49.678;6.560;2023-05-10T02:53:22;99325.00;;;18.20
20092;BMP180;10205;49.678;6.560;2023-05-10T02:55:54;99320.00;;;18.20
20092;BMP180;10205;49.678;6.560;2023-05-10T02:58:24;99329.00;;;18.20
20092;BMP180;10205;49.678;6.560;2023-05-10T03:00:51;99325.00;;;18.20
20092;BMP180;10205;49.678;6.560;2023-05-10T03:03:18;99332.00;;;18.20
20092;BMP180;10205;49.678;6.560;2023-05-10T03:05:46;99327.00;;;18.20
20092;BMP180;10205;49.678;6.560;2023-05-10T03:08:13;99325.00;;;18.10
20092;BMP180;10205;49.678;6.560;2023-05-10T03:11:09;99340.00;;;18.10
20092;BMP180;10205;49.678;6.560;2023-05-10T03:13:49;99328.00;;;18.10
20092;BMP180;10205;49.678;6.560;2023-05-10T03:16:25;99324.00;;;18.10
20092;BMP180;10205;49.678;6.560;2023-05-10T03:19:02;99340.00;;;18.10
20092;BMP180;10205;49.678;6.560;2023-05-10T03:21:31;99343.00;;;18.10
20092;BMP180;10205;49.678;6.560;2023-05-10T03:24:04;99329.00;;;18.10
20092;BMP180;10205;49.678;6.560;2023-05-10T03:26:34;99341.00;;;18.10
20092;BMP180;10205;49.678;6.560;2023-05-10T03:29:05;99333.00;;;18.00
20092;BMP180;10205;49.678;6.560;2023-05-10T03:31:33;99337.00;;;18.00
20092;BMP180;10205;49.678;6.560;2023-05-10T03:34:00;99336.00;;;18.00
20092;BMP180;10205;49.678;6.560;2023-05-10T03:36:28;99342.00;;;18.00
20092;BMP180;10205;49.678;6.560;2023-05-10T03:38:55;99343.00;;;18.00
20092;BMP180;10205;49.678;6.560;2023-05-10T03:41:22;99343.00;;;18.00
20092;BMP180;10205;49.678;6.560;2023-05-10T03:43:50;99341.00;;;18.00
20092;BMP180;10205;49.678;6.560;2023-05-10T03:46:17;99351.00;;;18.00
20092;BMP180;10205;49.678;6.560;2023-05-10T03:48:44;99348.00;;;17.90
20092;BMP180;10205;49.678;6.560;2023-05-10T03:51:11;99352.00;;;17.90
20092;BMP180;10205;49.678;6.560;2023-05-10T03:53:38;99349.00;;;17.90
20092;BMP180;10205;49.678;6.560;2023-05-10T03:56:06;99353.00;;;17.90
20092;BMP180;10205;49.678;6.560;2023-05-10T03:58:33;99336.00;;;17.90
20092;BMP180;10205;49.678;6.560;2023-05-10T04:01:01;99332.00;;;17.90
20092;BMP180;10205;49.678;6.560;2023-05-10T04:03:28;99341.00;;;17.90
20092;BMP180;10205;49.678;6.560;2023-05-10T04:05:59;99332.00;;;17.90
20092;BMP180;10205;49.678;6.560;2023-05-10T04:08:27;99341.00;;;17.90
20092;BMP180;10205;49.678;6.560;2023-05-10T04:10:54;99330.00;;;17.90
20092;BMP180;10205;49.678;6.560;2023-05-10T04:13:21;99331.00;;;17.90
20092;BMP180;10205;49.678;6.560;2023-05-10T04:15:48;99336.00;;;17.90
20092;BMP180;10205;49.678;6.560;2023-05-10T04:18:16;99340.00;;;17.90
20092;BMP180;10205;49.678;6.560;2023-05-10T04:20:43;99338.00;;;17.90
20092;BMP180;10205;49.678;6.560;2023-05-10T04:23:10;99348.00;;;17.90
20092;BMP180;10205;49.678;6.560;2023-05-10T04:25:38;99347.00;;;17.90
20092;BMP180;10205;49.678;6.560;2023-05-10T04:28:05;99345.00;;;17.90
20092;BMP180;10205;49.678;6.560;2023-05-10T04:30:32;99350.00;;;17.90
20092;BMP180;10205;49.678;6.560;2023-05-10T04:32:59;99348.00;;;17.80
20092;BMP180;10205;49.678;6.560;2023-05-10T04:35:27;99359.00;;;17.80
20092;BMP180;10205;49.678;6.560;2023-05-10T04:37:55;99363.00;;;17.80
20092;BMP180;10205;49.678;6.560;2023-05-10T04:40:22;99360.00;;;17.80
20092;BMP180;10205;49.678;6.560;2023-05-10T04:42:49;99366.00;;;17.80
20092;BMP180;10205;49.678;6.560;2023-05-10T04:45:16;99369.00;;;17.80
20092;BMP180;10205;49.678;6.560;2023-05-10T04:47:43;99377.00;;;17.80
20092;BMP180;10205;49.678;6.560;2023-05-10T04:50:10;99378.00;;;17.80
20092;BMP180;10205;49.678;6.560;2023-05-10T04:52:38;99387.00;;;17.80
20092;BMP180;10205;49.678;6.560;2023-05-10T04:55:06;99386.00;;;17.80
20092;BMP180;10205;49.678;6.560;2023-05-10T04:57:35;99389.00;;;17.80
20092;BMP180;10205;49.678;6.560;2023-05-10T05:00:02;99388.00;;;17.80
20092;BMP180;10205;49.678;6.560;2023-05-10T05:02:30;99386.00;;;17.70
20092;BMP180;10205;49.678;6.560;2023-05-10T05:04:57;99392.00;;;17.70
20092;BMP180;10205;49.678;6.560;2023-05-10T05:07:24;99383.00;;;17.70
20092;BMP180;10205;49.678;6.560;2023-05-10T05:09:52;99409.00;;;17.70
20092;BMP180;10205;49.678;6.560;2023-05-10T05:12:19;99402.00;;;17.70
20092;BMP180;10205;49.678;6.560;2023-05-10T05:14:46;99408.00;;;17.70
20092;BMP180;10205;49.678;6.560;2023-05-10T05:17:13;99400.00;;;17.70
20092;BMP180;10205;49.678;6.560;2023-05-10T05:19:40;99408.00;;;17.70
20092;BMP180;10205;49.678;6.560;2023-05-10T05:22:07;99416.00;;;17.70
20092;BMP180;10205;49.678;6.560;2023-05-10T05:24:37;99424.00;;;17.60
20092;BMP180;10205;49.678;6.560;2023-05-10T05:27:06;99425.00;;;17.70
20092;BMP180;10205;49.678;6.560;2023-05-10T05:29:33;99425.00;;;17.70
20092;BMP180;10205;49.678;6.560;2023-05-10T05:32:00;99426.00;;;17.60
20092;BMP180;10205;49.678;6.560;2023-05-10T05:34:27;99424.00;;;17.60
20092;BMP180;10205;49.678;6.560;2023-05-10T05:36:54;99421.00;;;17.60
20092;BMP180;10205;49.678;6.560;2023-05-10T05:39:21;99419.00;;;17.60
20092;BMP180;10205;49.678;6.560;2023-05-10T05:41:48;99428.00;;;17.60
20092;BMP180;10205;49.678;6.560;2023-05-10T05:44:16;99433.00;;;17.60
20092;BMP180;10205;49.678;6.560;2023-05-10T05:46:43;99425.00;;;17.60
20092;BMP180;10205;49.678;6.560;2023-05-10T05:49:10;99428.00;;;17.70
20092;BMP180;10205;49.678;6.560;2023-05-10T05:51:37;99433.00;;;17.70
20092;BMP180;10205;49.678;6.560;2023-05-10T05:54:05;99442.00;;;17.70
20092;BMP180;10205;49.678;6.560;2023-05-10T05:56:32;99440.00;;;17.70
20092;BMP180;10205;49.678;6.560;2023-05-10T05:58:59;99439.00;;;17.70
20092;BMP180;10205;49.678;6.560;2023-05-10T06:01:27;99438.00;;;17.70
20092;BMP180;10205;49.678;6.560;2023-05-10T06:03:54;99441.00;;;17.70
20092;BMP180;10205;49.678;6.560;2023-05-10T06:06:21;99444.00;;;17.70
20092;BMP180;10205;49.678;6.560;2023-05-10T06:08:51;99449.00;;;17.70
20092;BMP180;10205;49.678;6.560;2023-05-10T06:11:18;99458.00;;;17.70
20092;BMP180;10205;49.678;6.560;2023-05-10T06:13:46;99459.00;;;17.70
20092;BMP180;10205;49.678;6.560;2023-05-10T06:16:13;99464.00;;;17.70
20092;BMP180;10205;49.678;6.560;2023-05-10T06:18:41;99467.00;;;17.70
20092;BMP180;10205;49.678;6.560;2023-05-10T06:21:09;99470.00;;;17.70
20092;BMP180;10205;49.678;6.560;2023-05-10T06:23:36;99478.00;;;17.70
20092;BMP180;10205;49.678;6.560;2023-05-10T06:26:05;99476.00;;;17.70
20092;BMP180;10205;49.678;6.560;2023-05-10T06:28:32;99483.00;;;17.70
20092;BMP180;10205;49.678;6.560;2023-05-10T06:31:00;99486.00;;;17.70
20092;BMP180;10205;49.678;6.560;2023-05-10T06:33:27;99492.00;;;17.70
20092;BMP180;10205;49.678;6.560;2023-05-10T06:35:56;99497.00;;;17.70
20092;BMP180;10205;49.678;6.560;2023-05-10T06:38:23;99492.00;;;17.70
20092;BMP180;10205;49.678;6.560;2023-05-10T06:40:50;99500.00;;;17.70
20092;BMP180;10205;49.678;6.560;2023-05-10T06:43:17;99495.00;;;17.70
20092;BMP180;10205;49.678;6.560;2023-05-10T06:45:45;99501.00;;;17.70
20092;BMP180;10205;49.678;6.560;2023-05-10T06:48:12;99502.00;;;17.70
20092;BMP180;10205;49.678;6.560;2023-05-10T06:50:39;99498.00;;;17.70
20092;BMP180;10205;49.678;6.560;2023-05-10T06:53:07;99503.00;;;17.70
20092;BMP180;10205;49.678;6.560;2023-05-10T06:55:34;99507.00;;;17.70
20092;BMP180;10205;49.678;6.560;2023-05-10T06:58:01;99504.00;;;17.70
20092;BMP180;10205;49.678;6.560;2023-05-10T07:00:28;99503.00;;;17.70
20092;BMP180;10205;49.678;6.560;2023-05-10T07:02:55;99500.00;;;17.80
20092;BMP180;10205;49.678;6.560;2023-05-10T07:05:23;99505.00;;;17.80
20092;BMP180;10205;49.678;6.560;2023-05-10T07:07:50;99503.00;;;17.80
20092;BMP180;10205;49.678;6.560;2023-05-10T07:10:18;99506.00;;;17.80
20092;BMP180;10205;49.678;6.560;2023-05-10T07:12:45;99492.00;;;17.80
20092;BMP180;10205;49.678;6.560;2023-05-10T07:15:12;99505.00;;;17.80
20092;BMP180;10205;49.678;6.560;2023-05-10T07:17:39;99502.00;;;17.80
20092;BMP180;10205;49.678;6.560;2023-05-10T07:20:08;99499.00;;;17.80
20092;BMP180;10205;49.678;6.560;2023-05-10T07:22:35;99482.00;;;17.80
20092;BMP180;10205;49.678;6.560;2023-05-10T07:25:03;99503.00;;;17.80
20092;BMP180;10205;49.678;6.560;2023-05-10T07:27:31;99513.00;;;17.80
20092;BMP180;10205;49.678;6.560;2023-05-10T07:29:59;99505.00;;;17.80
20092;BMP180;10205;49.678;6.560;2023-05-10T07:32:26;99499.00;;;17.90
20092;BMP180;10205;49.678;6.560;2023-05-10T07:34:53;99511.00;;;17.90
20092;BMP180;10205;49.678;6.560;2023-05-10T07:37:20;99510.00;;;17.90
20092;BMP180;10205;49.678;6.560;2023-05-10T07:39:47;99504.00;;;17.90
20092;BMP180;10205;49.678;6.560;2023-05-10T07:42:16;99514.00;;;17.90
20092;BMP180;10205;49.678;6.560;2023-05-10T07:44:44;99509.00;;;17.90
20092;BMP180;10205;49.678;6.560;2023-05-10T07:47:12;99508.00;;;18.00
20092;BMP180;10205;49.678;6.560;2023-05-10T07:49:39;99520.00;;;18.00
20092;BMP180;10205;49.678;6.560;2023-05-10T07:52:06;99511.00;;;18.00
20092;BMP180;10205;49.678;6.560;2023-05-10T07:54:33;99519.00;;;18.00
20092;BMP180;10205;49.678;6.560;2023-05-10T07:57:00;99511.00;;;18.00
20092;BMP180;10205;49.678;6.560;2023-05-10T07:59:27;99513.00;;;18.10
20092;BMP180;10205;49.678;6.560;2023-05-10T08:01:56;99511.00;;;18.10
20092;BMP180;10205;49.678;6.560;2023-05-10T08:04:23;99502.00;;;18.10
20092;BMP180;10205;49.678;6.560;2023-05-10T08:06:50;99499.00;;;18.10
20092;BMP180;10205;49.678;6.560;2023-05-10T08:09:17;99508.00;;;18.10
20092;BMP180;10205;49.678;6.560;2023-05-10T08:11:49;99510.00;;;18.20
20092;BMP180;10205;49.678;6.560;2023-05-10T08:14:16;99505.00;;;18.20
20092;BMP180;10205;49.678;6.560;2023-05-10T08:16:43;99510.00;;;18.20
20092;BMP180;10205;49.678;6.560;2023-05-10T08:19:12;99502.00;;;18.20
20092;BMP180;10205;49.678;6.560;2023-05-10T08:21:45;99516.00;;;18.20
20092;BMP180;10205;49.678;6.560;2023-05-10T08:24:12;99528.00;;;18.20
20092;BMP180;10205;49.678;6.560;2023-05-10T08:26:40;99540.00;;;18.20
20092;BMP180;10205;49.678;6.560;2023-05-10T08:29:07;99533.00;;;18.20
20092;BMP180;10205;49.678;6.560;2023-05-10T08:31:34;99539.00;;;18.20
20092;BMP180;10205;49.678;6.560;2023-05-10T08:34:01;99529.00;;;18.20
20092;BMP180;10205;49.678;6.560;2023-05-10T08:36:29;99537.00;;;18.20
20092;BMP180;10205;49.678;6.560;2023-05-10T08:38:58;99541.00;;;18.20
20092;BMP180;10205;49.678;6.560;2023-05-10T08:41:25;99544.00;;;18.20
20092;BMP180;10205;49.678;6.560;2023-05-10T08:43:53;99547.00;;;18.20
20092;BMP180;10205;49.678;6.560;2023-05-10T08:46:22;99549.00;;;18.20
20092;BMP180;10205;49.678;6.560;2023-05-10T08:48:50;99561.00;;;18.20
20092;BMP180;10205;49.678;6.560;2023-05-10T08:51:22;99535.00;;;18.20
20092;BMP180;10205;49.678;6.560;2023-05-10T08:53:51;99562.00;;;18.20
20092;BMP180;10205;49.678;6.560;2023-05-10T08:56:18;99554.00;;;18.20
20092;BMP180;10205;49.678;6.560;2023-05-10T08:58:46;99560.00;;;18.20
20092;BMP180;10205;49.678;6.560;2023-05-10T09:01:16;99555.00;;;18.20
20092;BMP180;10205;49.678;6.560;2023-05-10T09:03:46;99568.00;;;18.20
20092;BMP180;10205;49.678;6.560;2023-05-10T09:06:14;99547.00;;;18.20
20092;BMP180;10205;49.678;6.560;2023-05-10T09:08:42;99561.00;;;18.20
20092;BMP180;10205;49.678;6.560;2023-05-10T09:11:12;99569.00;;;18.20
20092;BMP180;10205;49.678;6.560;2023-05-10T09:13:40;99572.00;;;18.30
20092;BMP180;10205;49.678;6.560;2023-05-10T09:16:07;99569.00;;;18.30
20092;BMP180;10205;49.678;6.560;2023-05-10T09:18:34;99572.00;;;18.30
20092;BMP180;10205;49.678;6.560;2023-05-10T09:21:02;99571.00;;;18.30
20092;BMP180;10205;49.678;6.560;2023-05-10T09:23:30;99566.00;;;18.30
20092;BMP180;10205;49.678;6.560;2023-05-10T09:26:04;99575.00;;;18.30
20092;BMP180;10205;49.678;6.560;2023-05-10T09:28:34;99570.00;;;18.40
20092;BMP180;10205;49.678;6.560;2023-05-10T09:31:01;99568.00;;;18.40
20092;BMP180;10205;49.678;6.560;2023-05-10T09:33:28;99580.00;;;18.40
20092;BMP180;10205;49.678;6.560;2023-05-10T09:35:55;99584.00;;;18.40
20092;BMP180;10205;49.678;6.560;2023-05-10T09:38:45;99583.00;;;18.50
20092;BMP180;10205;49.678;6.560;2023-05-10T09:41:18;99590.00;;;18.50
20092;BMP180;10205;49.678;6.560;2023-05-10T09:43:47;99593.00;;;18.50
20092;BMP180;10205;49.678;6.560;2023-05-10T09:46:15;99588.00;;;18.50
20092;BMP180;10205;49.678;6.560;2023-05-10T09:48:44;99593.00;;;18.50
20092;BMP180;10205;49.678;6.560;2023-05-10T09:51:19;99593.00;;;18.50
20092;BMP180;10205;49.678;6.560;2023-05-10T09:53:47;99601.00;;;18.50
20092;BMP180;10205;49.678;6.560;2023-05-10T09:56:33;99592.00;;;18.50
20092;BMP180;10205;49.678;6.560;2023-05-10T09:59:06;99592.00;;;18.60
20092;BMP180;10205;49.678;6.560;2023-05-10T10:01:34;99587.00;;;18.60
20092;BMP180;10205;49.678;6.560;2023-05-10T10:04:03;99581.00;;;18.60
20092;BMP180;10205;49.678;6.560;2023-05-10T10:06:36;99597.00;;;18.70
20092;BMP180;10205;49.678;6.560;2023-05-10T10:09:04;99596.00;;;18.70
20092;BMP180;10205;49.678;6.560;2023-05-10T10:11:33;99593.00;;;18.70
20092;BMP180;10205;49.678;6.560;2023-05-10T10:14:01;99594.00;;;18.80
20092;BMP180;10205;49.678;6.560;2023-05-10T10:16:31;99592.00;;;18.80
20092;BMP180;10205;49.678;6.560;2023-05-10T10:18:58;99594.00;;;18.80
20092;BMP180;10205;49.678;6.560;2023-05-10T10:21:26;99593.00;;;18.80
20092;BMP180;10205;49.678;6.560;2023-05-10T10:23:53;99585.00;;;18.90
20092;BMP180;10205;49.678;6.560;2023-05-10T10:26:22;99592.00;;;18.90
20092;BMP180;10205;49.678;6.560;2023-05-10T10:28:59;99596.00;;;18.90
20092;BMP180;10205;49.678;6.560;2023-05-10T10:31:45;99590.00;;;18.90
20092;BMP180;10205;49.678;6.560;2023-05-10T10:34:25;99586.00;;;18.90
20092;BMP180;10205;49.678;6.560;2023-05-10T10:36:55;99580.00;;;18.90
20092;BMP180;10205;49.678;6.560;2023-05-10T10:39:24;99576.00;;;19.00
20092;BMP180;10205;49.678;6.560;2023-05-10T10:41:53;99590.00;;;19.00
20092;BMP180;10205;49.678;6.560;2023-05-10T10:44:38;99595.00;;;19.00
20092;BMP180;10205;49.678;6.560;2023-05-10T10:47:23;99591.00;;;19.00
20092;BMP180;10205;49.678;6.560;2023-05-10T10:50:03;99598.00;;;19.00
20092;BMP180;10205;49.678;6.560;2023-05-10T10:52:33;99593.00;;;19.10
20092;BMP180;10205;49.678;6.560;2023-05-10T10:55:03;99595.00;;;19.10
20092;BMP180;10205;49.678;6.560;2023-05-10T10:57:43;99588.00;;;19.10
20092;BMP180;10205;49.678;6.560;2023-05-10T11:00:29;99589.00;;;19.10
20092;BMP180;10205;49.678;6.560;2023-05-10T11:02:59;99592.00;;;19.20
20092;BMP180;10205;49.678;6.560;2023-05-10T11:05:41;99594.00;;;19.20
20092;BMP180;10205;49.678;6.560;2023-05-10T11:08:18;99595.00;;;19.20
20092;BMP180;10205;49.678;6.560;2023-05-10T11:11:06;99594.00;;;19.30
20092;BMP180;10205;49.678;6.560;2023-05-10T11:13:38;99592.00;;;19.30
20092;BMP180;10205;49.678;6.560;2023-05-10T11:16:15;99595.00;;;19.40
20092;BMP180;10205;49.678;6.560;2023-05-10T11:18:57;99591.00;;;19.40
20092;BMP180;10205;49.678;6.560;2023-05-10T11:21:25;99591.00;;;19.40
20092;BMP180;10205;49.678;6.560;2023-05-10T11:23:57;99600.00;;;19.40
20092;BMP180;10205;49.678;6.560;2023-05-10T11:26:29;99595.00;;;19.50
20092;BMP180;10205;49.678;6.560;2023-05-10T11:28:57;99607.00;;;19.50
20092;BMP180;10205;49.678;6.560;2023-05-10T11:31:26;99608.00;;;19.60
20092;BMP180;10205;49.678;6.560;2023-05-10T11:33:57;99604.00;;;19.60
20092;BMP180;10205;49.678;6.560;2023-05-10T11:36:27;99598.00;;;19.60
20092;BMP180;10205;49.678;6.560;2023-05-10T11:38:56;99599.00;;;19.60
20092;BMP180;10205;49.678;6.560;2023-05-10T11:41:25;99591.00;;;19.60
20092;BMP180;10205;49.678;6.560;2023-05-10T11:43:53;99583.00;;;19.70
20092;BMP180;10205;49.678;6.560;2023-05-10T11:46:23;99588.00;;;19.70
20092;BMP180;10205;49.678;6.560;2023-05-10T11:48:55;99583.00;;;19.80
20092;BMP180;10205;49.678;6.560;2023-05-10T11:51:23;99591.00;;;19.80
20092;BMP180;10205;49.678;6.560;2023-05-10T11:53:53;99598.00;;;19.90
20092;BMP180;10205;49.678;6.560;2023-05-10T11:56:21;99605.00;;;19.90
20092;BMP180;10205;49.678;6.560;2023-05-10T11:58:53;99602.00;;;20.00
20092;BMP180;10205;49.678;6.560;2023-05-10T12:01:22;99593.00;;;20.00
20092;BMP180;10205;49.678;6.560;2023-05-10T12:03:50;99599.00;;;20.10
20092;BMP180;10205;49.678;6.560;2023-05-10T12:06:20;99604.00;;;20.10
20092;BMP180;10205;49.678;6.560;2023-05-10T12:08:48;99594.00;;;20.20
20092;BMP180;10205;49.678;6.560;2023-05-10T12:11:18;99594.00;;;20.20
20092;BMP180;10205;49.678;6.560;2023-05-10T12:13:46;99601.00;;;20.30
20092;BMP180;10205;49.678;6.560;2023-05-10T12:16:16;99609.00;;;20.30
20092;BMP180;10205;49.678;6.560;2023-05-10T12:18:43;99612.00;;;20.40
20092;BMP180;10205;49.678;6.560;2023-05-10T12:21:11;99610.00;;;20.40
20092;BMP180;10205;49.678;6.560;2023-05-10T12:23:40;99608.00;;;20.50
20092;BMP180;10205;49.678;6.560;2023-05-10T12:26:09;99616.00;;;20.50
20092;BMP180;10205;49.678;6.560;2023-05-10T12:28:37;99609.00;;;20.60
20092;BMP180;10205;49.678;6.560;2023-05-10T12:31:06;99608.00;;;20.60
20092;BMP180;10205;49.678;6.560;2023-05-10T12:33:37;99612.00;;;20.70
20092;BMP180;10205;49.678;6.560;2023-05-10T12:36:08;99594.00;;;20.80
20092;BMP180;10205;49.678;6.560;2023-05-10T12:38:37;99609.00;;;20.80
20092;BMP180;10205;49.678;6.560;2023-05-10T12:41:08;99604.00;;;20.90
20092;BMP180;10205;49.678;6.560;2023-05-10T12:43:36;99604.00;;;20.90
20092;BMP180;10205;49.678;6.560;2023-05-10T12:46:07;99609.00;;;21.00
20092;BMP180;10205;49.678;6.560;2023-05-10T12:48:35;99609.00;;;21.00
20092;BMP180;10205;49.678;6.560;2023-05-10T12:51:04;99605.00;;;21.10
20092;BMP180;10205;49.678;6.560;2023-05-10T12:53:35;99606.00;;;21.10
20092;BMP180;10205;49.678;6.560;2023-05-10T12:56:02;99612.00;;;21.20
20092;BMP180;10205;49.678;6.560;2023-05-10T12:58:31;99604.00;;;21.20
20092;BMP180;10205;49.678;6.560;2023-05-10T13:00:58;99593.00;;;21.20
20092;BMP180;10205;49.678;6.560;2023-05-10T13:03:26;99598.00;;;21.30
20092;BMP180;10205;49.678;6.560;2023-05-10T13:05:53;99600.00;;;21.30
20092;BMP180;10205;49.678;6.560;2023-05-10T13:08:20;99599.00;;;21.30
20092;BMP180;10205;49.678;6.560;2023-05-10T13:10:47;99595.00;;;21.40
20092;BMP180;10205;49.678;6.560;2023-05-10T13:13:15;99597.00;;;21.40
20092;BMP180;10205;49.678;6.560;2023-05-10T13:15:44;99593.00;;;21.50
20092;BMP180;10205;49.678;6.560;2023-05-10T13:18:11;99586.00;;;21.60
20092;BMP180;10205;49.678;6.560;2023-05-10T13:20:39;99589.00;;;21.60
20092;BMP180;10205;49.678;6.560;2023-05-10T13:23:06;99586.00;;;21.60
20092;BMP180;10205;49.678;6.560;2023-05-10T13:25:33;99584.00;;;21.70
20092;BMP180;10205;49.678;6.560;2023-05-10T13:28:00;99588.00;;;21.70
20092;BMP180;10205;49.678;6.560;2023-05-10T13:30:27;99595.00;;;21.80
20092;BMP180;10205;49.678;6.560;2023-05-10T13:32:55;99595.00;;;21.80
20092;BMP180;10205;49.678;6.560;2023-05-10T13:35:23;99592.00;;;21.90
20092;BMP180;10205;49.678;6.560;2023-05-10T13:37:50;99582.00;;;21.90
20092;BMP180;10205;49.678;6.560;2023-05-10T13:40:17;99584.00;;;22.00
20092;BMP180;10205;49.678;6.560;2023-05-10T13:42:44;99577.00;;;22.00
20092;BMP180;10205;49.678;6.560;2023-05-10T13:45:12;99573.00;;;22.10
20092;BMP180;10205;49.678;6.560;2023-05-10T13:47:39;99570.00;;;22.20
20092;BMP180;10205;49.678;6.560;2023-05-10T13:50:08;99561.00;;;22.20
20092;BMP180;10205;49.678;6.560;2023-05-10T13:52:35;99569.00;;;22.20
20092;BMP180;10205;49.678;6.560;2023-05-10T13:55:03;99567.00;;;22.30
20092;BMP180;10205;49.678;6.560;2023-05-10T13:57:31;99563.00;;;22.30
20092;BMP180;10205;49.678;6.560;2023-05-10T14:00:00;99552.00;;;22.30
20092;BMP180;10205;49.678;6.560;2023-05-10T14:02:27;99555.00;;;22.40
20092;BMP180;10205;49.678;6.560;2023-05-10T14:04:54;99555.00;;;22.40
20092;BMP180;10205;49.678;6.560;2023-05-10T14:07:22;99549.00;;;22.40
20092;BMP180;10205;49.678;6.560;2023-05-10T14:09:49;99550.00;;;22.50
20092;BMP180;10205;49.678;6.560;2023-05-10T14:12:16;99545.00;;;22.50
20092;BMP180;10205;49.678;6.560;2023-05-10T14:14:43;99549.00;;;22.50
20092;BMP180;10205;49.678;6.560;2023-05-10T14:17:10;99550.00;;;22.50
20092;BMP180;10205;49.678;6.560;2023-05-10T14:19:37;99548.00;;;22.60
20092;BMP180;10205;49.678;6.560;2023-05-10T14:22:05;99538.00;;;22.60